createdAt,value
2022-09-17T00:01:31.226Z,9.46
2022-09-17T00:04:02.096Z,9.22
2022-09-17T00:06:32.729Z,9.22
2022-09-17T00:09:00.330Z,9.80
2022-09-17T00:11:30.781Z,9.66
2022-09-17T00:14:01.267Z,9.44
2022-09-17T00:16:31.947Z,9.58
2022-09-17T00:19:00.953Z,9.50
2022-09-17T00:21:29.698Z,9.60
2022-09-17T00:24:00.385Z,9.81
2022-09-17T00:26:30.214Z,10.26
2022-09-17T00:28:59.430Z,10.23
2022-09-17T00:31:28.667Z,10.12
2022-09-17T00:33:56.874Z,9.84
2022-09-17T00:36:24.757Z,9.81
2022-09-17T00:38:53.152Z,9.74
2022-09-17T00:41:23.426Z,9.80
2022-09-17T00:43:53.707Z,9.51
2022-09-17T00:46:30.897Z,9.55
2022-09-17T00:49:02.134Z,9.53
2022-09-17T00:51:34.345Z,9.58
2022-09-17T00:54:04.765Z,9.62
2022-09-17T00:56:37.235Z,9.73
2022-09-17T00:59:05.390Z,9.88
2022-09-17T01:01:34.337Z,10.31
2022-09-17T01:04:02.050Z,10.22
2022-09-17T01:06:35.920Z,10.49
2022-09-17T01:09:26.205Z,10.51
2022-09-17T01:12:09.424Z,11.01
2022-09-17T01:14:50.308Z,11.04
2022-09-17T01:17:28.308Z,10.91
2022-09-17T01:20:25.952Z,10.87
2022-09-17T01:23:15.073Z,11.05
2022-09-17T01:25:53.497Z,11.62
2022-09-17T01:28:33.882Z,11.30
2022-09-17T01:31:20.843Z,11.34
2022-09-17T01:33:54.813Z,11.01
2022-09-17T01:36:37.107Z,11.24
2022-09-17T01:39:12.430Z,11.16
2022-09-17T01:41:45.051Z,11.97
2022-09-17T01:44:18.712Z,12.26
2022-09-17T01:46:53.832Z,12.19
2022-09-17T01:49:25.395Z,12.64
2022-09-17T01:51:56.155Z,12.18
2022-09-17T01:54:27.775Z,12.14
2022-09-17T01:57:02.341Z,12.49
2022-09-17T01:59:34.685Z,11.97
2022-09-17T02:02:11.320Z,12.16
2022-09-17T02:04:44.948Z,12.63
2022-09-17T02:07:20.601Z,12.16
2022-09-17T02:09:55.255Z,12.91
2022-09-17T02:12:31.628Z,13.06
2022-09-17T02:15:02.347Z,12.69
2022-09-17T02:17:38.530Z,13.09
2022-09-17T02:20:07.848Z,13.14
2022-09-17T02:22:43.716Z,13.00
2022-09-17T02:25:18.957Z,13.43
2022-09-17T02:27:56.148Z,13.73
2022-09-17T02:30:24.286Z,13.28
2022-09-17T02:32:55.093Z,13.31
2022-09-17T02:35:23.847Z,13.69
2022-09-17T02:37:53.268Z,13.82
2022-09-17T02:40:25.556Z,13.93
2022-09-17T02:43:09.601Z,13.89
2022-09-17T02:45:51.056Z,13.74
2022-09-17T02:48:35.677Z,13.64
2022-09-17T02:51:21.938Z,13.51
2022-09-17T02:53:59.290Z,13.75
2022-09-17T02:56:41.414Z,13.08
2022-09-17T02:59:19.883Z,13.57
2022-09-17T03:01:54.721Z,13.66
2022-09-17T03:04:27.766Z,13.41
2022-09-17T03:06:57.226Z,13.64
2022-09-17T03:09:28.326Z,13.61
2022-09-17T03:11:56.683Z,13.17
2022-09-17T03:14:24.795Z,13.75
2022-09-17T03:16:53.135Z,13.72
2022-09-17T03:19:21.099Z,13.56
2022-09-17T03:21:50.850Z,13.38
2022-09-17T03:24:18.934Z,13.32
2022-09-17T03:26:47.561Z,13.12
2022-09-17T03:29:15.527Z,13.67
2022-09-17T03:31:44.066Z,13.27
2022-09-17T03:34:12.215Z,13.18
2022-09-17T03:36:40.510Z,12.73
2022-09-17T03:39:09.950Z,12.52
2022-09-17T03:41:38.855Z,12.78
2022-09-17T03:44:06.951Z,12.69
2022-09-17T03:46:35.445Z,12.40
2022-09-17T03:49:03.512Z,12.28
2022-09-17T03:51:31.604Z,12.07
2022-09-17T03:53:59.648Z,12.33
2022-09-17T03:56:29.595Z,12.67
2022-09-17T03:58:59.850Z,12.31
2022-09-17T04:01:28.969Z,12.06
2022-09-17T04:03:56.881Z,12.06
2022-09-17T04:06:25.179Z,12.62
2022-09-17T04:08:53.122Z,12.61
2022-09-17T04:11:21.333Z,12.60
2022-09-17T04:13:50.524Z,12.20
2022-09-17T04:16:18.655Z,12.85
2022-09-17T04:18:46.504Z,12.96
2022-09-17T04:21:14.609Z,12.90
2022-09-17T04:23:42.400Z,12.92
2022-09-17T04:26:10.938Z,12.42
2022-09-17T04:28:38.653Z,12.46
2022-09-17T04:31:08.293Z,12.19
2022-09-17T04:33:37.456Z,11.52
2022-09-17T04:36:05.609Z,12.04
2022-09-17T04:38:33.527Z,12.56
2022-09-17T04:41:01.548Z,12.24
2022-09-17T04:43:29.203Z,12.49
2022-09-17T04:45:57.231Z,12.25
2022-09-17T04:48:26.257Z,12.35
2022-09-17T04:50:54.251Z,12.25
2022-09-17T04:53:21.946Z,12.12
2022-09-17T04:55:49.938Z,12.31
2022-09-17T04:58:17.823Z,11.89
2022-09-17T05:00:45.805Z,12.05
2022-09-17T05:03:13.476Z,12.61
2022-09-17T05:05:42.517Z,12.11
2022-09-17T05:08:10.218Z,12.06
2022-09-17T05:10:38.538Z,12.85
2022-09-17T05:13:06.325Z,12.56
2022-09-17T05:15:34.336Z,12.56
2022-09-17T05:18:02.013Z,12.42
2022-09-17T05:20:29.842Z,12.29
2022-09-17T05:22:58.817Z,12.56
2022-09-17T05:25:26.697Z,12.02
2022-09-17T05:27:56.222Z,12.47
2022-09-17T05:30:24.425Z,12.03
2022-09-17T05:33:00.016Z,12.15
2022-09-17T05:35:27.777Z,12.04
2022-09-17T05:38:00.416Z,11.65
2022-09-17T05:40:28.754Z,11.80
2022-09-17T05:42:59.680Z,12.05
2022-09-17T05:45:27.671Z,12.36
2022-09-17T05:47:59.822Z,12.58
2022-09-17T05:50:29.435Z,12.26
2022-09-17T05:52:57.493Z,12.51
2022-09-17T05:55:28.087Z,12.15
2022-09-17T05:57:56.121Z,12.40
2022-09-17T06:00:24.198Z,12.41
2022-09-17T06:02:55.969Z,12.05
2022-09-17T06:05:24.002Z,12.03
2022-09-17T06:07:52.304Z,12.47
2022-09-17T06:10:20.245Z,12.48
2022-09-17T06:12:49.309Z,12.13
2022-09-17T06:15:17.209Z,12.12
2022-09-17T06:17:44.923Z,11.98
2022-09-17T06:20:12.974Z,12.08
2022-09-17T06:22:40.640Z,11.88
2022-09-17T06:25:09.655Z,11.99
2022-09-17T06:27:37.404Z,12.12
2022-09-17T06:30:08.140Z,12.60
2022-09-17T06:32:35.851Z,12.64
2022-09-17T06:35:03.849Z,12.94
2022-09-17T06:37:33.805Z,12.79
2022-09-17T06:40:02.150Z,12.50
2022-09-17T06:42:30.077Z,12.17
2022-09-17T06:45:00.378Z,12.76
2022-09-17T06:47:31.157Z,12.02
2022-09-17T06:49:59.881Z,11.87
2022-09-17T06:52:30.039Z,12.08
2022-09-17T06:55:00.341Z,11.96
2022-09-17T06:57:30.370Z,11.88
2022-09-17T06:59:58.108Z,11.85
2022-09-17T07:02:25.959Z,11.88
2022-09-17T07:04:58.365Z,12.13
2022-09-17T07:07:26.281Z,12.35
2022-09-17T07:09:54.549Z,12.47
2022-09-17T07:12:25.373Z,12.70
2022-09-17T07:14:53.417Z,12.69
2022-09-17T07:17:21.593Z,12.59
2022-09-17T07:19:52.001Z,12.34
2022-09-17T07:22:21.360Z,12.40
2022-09-17T07:24:49.358Z,12.49
2022-09-17T07:27:17.054Z,12.39
2022-09-17T07:29:45.691Z,12.96
2022-09-17T07:32:13.434Z,13.09
2022-09-17T07:34:41.484Z,12.63
2022-09-17T07:37:09.125Z,12.89
2022-09-17T07:39:38.813Z,13.01
2022-09-17T07:42:06.833Z,12.98
2022-09-17T07:44:34.846Z,13.10
2022-09-17T07:47:02.633Z,13.06
2022-09-17T07:49:31.438Z,13.18
2022-09-17T07:52:00.544Z,13.92
2022-09-17T07:54:28.578Z,14.06
2022-09-17T07:56:57.762Z,14.12
2022-09-17T07:59:25.509Z,14.14
2022-09-17T08:01:53.211Z,13.54
2022-09-17T08:04:24.415Z,13.46
2022-09-17T08:06:52.103Z,13.92
2022-09-17T08:09:20.265Z,13.62
2022-09-17T08:11:56.382Z,13.81
2022-09-17T08:14:29.686Z,14.52
2022-09-17T08:16:57.934Z,14.86
2022-09-17T08:19:26.043Z,14.67
2022-09-17T08:21:54.045Z,15.13
2022-09-17T08:24:22.196Z,15.62
2022-09-17T08:26:49.873Z,15.49
2022-09-17T08:29:18.035Z,15.67
2022-09-17T08:31:47.372Z,15.76
2022-09-17T08:34:15.543Z,15.77
2022-09-17T08:36:43.467Z,15.41
2022-09-17T08:39:12.354Z,15.75
2022-09-17T08:41:55.015Z,15.92
2022-09-17T08:44:28.279Z,16.10
2022-09-17T08:47:06.454Z,16.58
2022-09-17T08:49:36.770Z,15.72
2022-09-17T08:52:31.401Z,15.41
2022-09-17T08:55:07.016Z,15.47
2022-09-17T08:57:48.716Z,15.39
2022-09-17T09:00:20.837Z,15.15
2022-09-17T09:03:05.866Z,15.50
2022-09-17T09:05:44.737Z,16.06
2022-09-17T09:08:19.765Z,15.72
2022-09-17T09:10:56.050Z,15.61
2022-09-17T09:13:31.590Z,15.66
2022-09-17T09:16:02.657Z,15.53
2022-09-17T09:18:36.813Z,16.07
2022-09-17T09:21:20.148Z,15.80
2022-09-17T09:23:54.698Z,15.91
2022-09-17T09:26:44.252Z,15.82
2022-09-17T09:29:23.006Z,15.88
2022-09-17T09:32:16.701Z,16.46
2022-09-17T09:34:59.591Z,16.52
2022-09-17T09:37:36.757Z,16.34
2022-09-17T09:40:31.353Z,16.87
2022-09-17T09:43:04.986Z,16.60
2022-09-17T09:45:49.110Z,16.77
2022-09-17T09:48:24.854Z,16.14
2022-09-17T09:56:08.382Z,15.62
2022-09-17T09:58:39.034Z,15.37
2022-09-17T10:01:17.393Z,14.97
2022-09-17T10:03:47.166Z,14.50
2022-09-17T10:06:18.517Z,14.57
2022-09-17T10:09:14.684Z,15.30
2022-09-17T10:11:44.230Z,15.94
2022-09-17T10:14:17.437Z,16.31
2022-09-17T10:16:45.394Z,15.75
2022-09-17T10:23:08.047Z,16.91
2022-09-17T10:25:36.747Z,16.87
2022-09-17T10:28:22.707Z,17.15
2022-09-17T10:30:57.817Z,16.76
2022-09-17T10:33:28.775Z,17.01
2022-09-17T10:36:02.690Z,16.83
2022-09-17T10:38:36.421Z,16.83
2022-09-17T10:41:15.858Z,17.40
2022-09-17T10:43:46.171Z,17.43
2022-09-17T10:46:18.146Z,17.66
2022-09-17T10:49:00.442Z,17.49
2022-09-17T10:51:29.004Z,17.44
2022-09-17T10:54:29.940Z,18.13
2022-09-17T10:57:01.637Z,18.00
2022-09-17T11:00:00.602Z,17.97
2022-09-17T11:02:55.616Z,17.83
2022-09-17T11:05:41.537Z,18.27
2022-09-17T11:08:18.053Z,19.18
2022-09-17T11:10:54.834Z,19.40
2022-09-17T11:13:34.054Z,18.41
2022-09-17T11:16:24.736Z,17.66
2022-09-17T11:19:02.227Z,18.64
2022-09-17T11:21:49.717Z,18.73
2022-09-17T11:24:46.025Z,18.67
2022-09-17T11:27:24.590Z,18.30
2022-09-17T11:30:06.340Z,18.71
2022-09-17T11:32:50.415Z,19.06
2022-09-17T11:35:21.916Z,18.05
2022-09-17T11:37:56.599Z,18.01
2022-09-17T11:40:41.913Z,18.53
2022-09-17T11:43:20.548Z,18.60
2022-09-17T11:45:58.676Z,17.71
2022-09-17T11:48:35.032Z,17.65
2022-09-17T11:51:08.533Z,17.37
2022-09-17T11:53:43.855Z,17.55
2022-09-17T11:56:19.298Z,16.28
2022-09-17T11:58:51.756Z,15.30
2022-09-17T12:01:26.963Z,15.00
2022-09-17T12:04:01.182Z,15.20
2022-09-17T12:06:39.776Z,15.89
2022-09-17T12:09:15.142Z,16.32
2022-09-17T12:11:50.509Z,16.52
2022-09-17T12:14:24.619Z,16.13
2022-09-17T12:16:58.874Z,15.90
2022-09-17T12:19:34.589Z,15.63
2022-09-17T12:22:07.265Z,15.42
2022-09-17T12:24:35.077Z,15.82
2022-09-17T12:27:22.256Z,16.63
2022-09-17T12:30:10.167Z,17.13
2022-09-17T12:33:04.031Z,18.00
2022-09-17T12:36:05.699Z,18.55
2022-09-17T12:39:02.792Z,18.55
2022-09-17T12:41:40.070Z,18.85
2022-09-17T12:44:24.785Z,19.21
2022-09-17T12:47:07.895Z,18.64
2022-09-17T12:49:58.706Z,15.99
2022-09-17T12:52:46.948Z,13.88
2022-09-17T12:55:28.526Z,12.29
2022-09-17T12:58:05.343Z,12.17
2022-09-17T13:00:39.294Z,12.69
2022-09-17T13:03:17.092Z,12.40
2022-09-17T13:06:09.086Z,11.91
2022-09-17T13:09:42.686Z,12.67
2022-09-17T13:12:19.623Z,12.67
2022-09-17T13:15:08.222Z,13.03
2022-09-17T13:17:46.664Z,13.21
2022-09-17T13:20:23.180Z,13.90
2022-09-17T13:22:54.297Z,13.84
2022-09-17T13:25:23.443Z,14.01
2022-09-17T13:28:07.404Z,14.30
2022-09-17T13:30:57.961Z,14.44
2022-09-17T13:34:05.860Z,15.02
2022-09-17T13:36:46.455Z,15.46
2022-09-17T13:39:38.829Z,15.12
2022-09-17T13:42:12.563Z,15.47
2022-09-17T13:44:46.038Z,15.15
2022-09-17T13:47:26.481Z,16.13
2022-09-17T13:49:59.515Z,16.08
2022-09-17T13:52:37.796Z,15.86
2022-09-17T13:55:07.938Z,15.84
2022-09-17T13:57:50.248Z,15.88
2022-09-17T14:00:52.981Z,15.91
2022-09-17T14:03:52.544Z,15.21
2022-09-17T14:06:59.062Z,14.19
2022-09-17T14:09:39.372Z,13.64
2022-09-17T14:15:58.253Z,13.78
2022-09-17T14:19:01.269Z,13.94
2022-09-17T14:21:33.045Z,14.17
2022-09-17T14:24:04.341Z,14.19
2022-09-17T14:27:04.891Z,13.74
2022-09-17T14:29:52.485Z,13.18
2022-09-17T14:32:33.628Z,13.12
2022-09-17T14:35:04.226Z,-142.05
2022-09-17T14:38:34.647Z,-142.05
2022-09-17T14:42:03.776Z,-142.05
2022-09-17T14:45:33.953Z,-142.05
2022-09-17T14:49:27.837Z,-142.05
2022-09-17T14:52:55.421Z,-142.05
2022-09-17T14:56:24.245Z,-142.05
2022-09-17T14:59:53.035Z,-142.05
2022-09-17T15:03:32.610Z,-142.05
2022-09-17T15:07:09.058Z,-142.05
2022-09-17T15:10:36.961Z,-142.05
2022-09-17T15:14:07.422Z,-142.05
2022-09-17T15:17:34.682Z,-142.05
2022-09-17T15:21:07.044Z,-142.05
2022-09-17T15:24:39.647Z,-142.05
2022-09-17T15:28:18.322Z,-142.05
2022-09-17T15:31:44.903Z,-142.05
2022-09-17T15:35:23.891Z,-142.05
2022-09-17T15:38:51.887Z,-142.05
2022-09-17T15:42:29.157Z,-142.05
2022-09-17T15:46:22.650Z,-142.05
2022-09-17T15:50:04.424Z,-142.05
2022-09-17T15:53:35.469Z,-142.05
2022-09-17T15:57:04.860Z,-142.05
2022-09-17T16:00:40.331Z,-142.05
2022-09-17T16:04:53.298Z,-142.05
2022-09-17T16:08:35.723Z,-142.05
2022-09-17T16:12:22.538Z,-142.05
2022-09-17T16:15:50.702Z,-142.05
2022-09-17T16:19:17.409Z,-142.05
2022-09-17T16:27:49.350Z,20.45
2022-09-17T16:31:17.575Z,-142.05
2022-09-17T16:34:44.007Z,-142.05
2022-09-17T16:38:12.050Z,-142.05
2022-09-17T16:41:40.849Z,-142.05
2022-09-17T16:45:09.331Z,-142.05
2022-09-17T16:48:36.747Z,-142.05
2022-09-17T16:52:06.451Z,-142.05
2022-09-17T16:55:33.375Z,-142.05
2022-09-17T16:58:59.747Z,-142.05
2022-09-17T17:02:28.056Z,-142.05
2022-09-17T17:05:54.387Z,-142.05
2022-09-17T17:09:20.827Z,-142.05
2022-09-17T17:12:47.202Z,-142.05
2022-09-17T17:16:15.203Z,-142.05
2022-09-17T17:19:43.738Z,-142.05
2022-09-17T17:23:10.096Z,-142.05
2022-09-17T17:26:37.068Z,-142.05
2022-09-17T17:30:05.542Z,-142.05
2022-09-17T17:33:32.471Z,-142.05
2022-09-17T17:37:01.062Z,-142.05
2022-09-17T17:40:27.714Z,-142.05
2022-09-17T17:43:54.423Z,-142.05
2022-09-17T17:47:21.634Z,-142.05
2022-09-17T17:50:48.073Z,-142.05
2022-09-17T17:54:16.281Z,-142.05
2022-09-17T17:57:43.109Z,-142.05
2022-09-17T18:01:12.868Z,-142.05
2022-09-17T18:09:11.844Z,25.67
2022-09-17T18:11:39.714Z,23.82
2022-09-17T18:14:07.595Z,17.73
2022-09-17T18:16:36.113Z,14.89
2022-09-17T18:19:04.054Z,13.91
2022-09-17T18:21:31.890Z,13.04
2022-09-17T18:23:59.852Z,12.82
2022-09-17T18:26:30.324Z,12.77
2022-09-17T18:28:58.763Z,12.95
2022-09-17T18:31:28.701Z,12.65
2022-09-17T18:33:59.301Z,12.81
2022-09-17T18:36:28.649Z,13.13
2022-09-17T18:39:03.528Z,13.14
2022-09-17T18:41:41.585Z,13.43
2022-09-17T18:44:09.934Z,13.35
2022-09-17T18:46:39.405Z,13.10
2022-09-17T18:49:07.406Z,13.11
2022-09-17T18:51:35.431Z,13.35
2022-09-17T18:54:03.950Z,13.13
2022-09-17T18:56:33.593Z,13.38
2022-09-17T18:59:07.800Z,13.26
2022-09-17T19:01:36.369Z,13.20
2022-09-17T19:04:04.992Z,13.28
2022-09-17T19:06:32.878Z,13.44
2022-09-17T19:09:02.177Z,13.64
2022-09-17T19:11:30.288Z,13.38
2022-09-17T19:13:58.758Z,13.74
2022-09-17T19:16:28.746Z,13.25
2022-09-17T19:18:56.662Z,13.26
2022-09-17T19:21:24.565Z,13.05
2022-09-17T19:23:53.821Z,12.70
2022-09-17T19:26:24.035Z,12.81
2022-09-17T19:28:54.419Z,13.00
2022-09-17T19:31:23.121Z,12.99
2022-09-17T19:33:53.122Z,13.01
2022-09-17T19:36:22.332Z,13.30
2022-09-17T19:38:50.466Z,13.65
2022-09-17T19:41:20.149Z,13.56
2022-09-17T19:43:48.606Z,13.32
2022-09-17T19:46:19.350Z,13.22
2022-09-17T19:48:49.009Z,12.51
2022-09-17T19:51:19.759Z,12.90
2022-09-17T19:53:47.762Z,13.47
2022-09-17T19:56:18.763Z,12.67
2022-09-17T19:58:47.315Z,12.84
2022-09-17T20:01:15.900Z,12.70
2022-09-17T20:03:45.362Z,13.04
2022-09-17T20:06:16.079Z,12.98
2022-09-17T20:12:26.808Z,12.36
2022-09-17T20:14:55.201Z,12.86
2022-09-17T20:17:23.063Z,12.67
2022-09-17T20:19:50.965Z,13.00
2022-09-17T20:22:18.878Z,13.32
2022-09-17T20:24:50.907Z,13.18
2022-09-17T20:27:19.190Z,13.26
2022-09-17T20:29:48.902Z,12.84
2022-09-17T20:32:16.864Z,13.13
2022-09-17T20:34:45.331Z,12.81
2022-09-17T20:37:13.965Z,12.48
2022-09-17T20:39:42.417Z,13.06
2022-09-17T20:42:10.339Z,13.35
2022-09-17T20:44:38.275Z,13.49
2022-09-17T20:47:07.788Z,13.78
2022-09-17T20:49:35.723Z,13.38
2022-09-17T20:52:04.819Z,13.59
2022-09-17T20:54:32.763Z,13.39
2022-09-17T20:57:00.638Z,13.40
2022-09-17T20:59:42.483Z,12.97
2022-09-17T21:02:13.732Z,12.71
2022-09-17T21:04:41.717Z,12.92
2022-09-17T21:07:09.602Z,13.10
2022-09-17T21:09:41.908Z,12.94
2022-09-17T21:12:10.012Z,12.79
2022-09-17T21:14:38.349Z,12.83
2022-09-17T21:17:06.310Z,12.57
2022-09-17T21:19:36.037Z,12.88
2022-09-17T21:22:03.900Z,12.73
2022-09-17T21:24:32.146Z,12.86
2022-09-17T21:27:00.062Z,12.40
2022-09-17T21:29:28.338Z,12.91
2022-09-17T21:31:58.866Z,12.81
2022-09-17T21:34:27.352Z,13.24
2022-09-17T21:36:56.818Z,13.39
2022-09-17T21:39:25.044Z,13.23
2022-09-17T21:41:52.913Z,12.92
2022-09-17T21:44:21.164Z,13.03
2022-09-17T21:46:49.743Z,13.17
2022-09-17T21:49:18.811Z,13.32
2022-09-17T21:51:46.806Z,12.80
2022-09-17T21:54:18.273Z,12.82
2022-09-17T21:56:46.922Z,13.01
2022-09-17T21:59:16.808Z,13.10
2022-09-17T22:01:47.039Z,13.45
2022-09-17T22:04:17.147Z,13.44
2022-09-17T22:06:46.172Z,13.31
2022-09-17T22:09:17.955Z,13.18
2022-09-17T22:11:46.351Z,13.33
2022-09-17T22:14:16.271Z,13.69
2022-09-17T22:16:46.267Z,13.03
2022-09-17T22:19:17.092Z,13.52
2022-09-17T22:21:47.384Z,13.23
2022-09-17T22:24:18.166Z,13.28
2022-09-17T22:26:50.759Z,13.04
2022-09-17T22:29:23.853Z,13.13
2022-09-17T22:31:52.185Z,12.45
2022-09-17T22:34:22.727Z,13.10
2022-09-17T22:36:50.795Z,12.90
2022-09-17T22:39:21.827Z,13.28
2022-09-17T22:41:50.165Z,13.26
2022-09-17T22:44:19.615Z,13.18
2022-09-17T22:46:49.427Z,13.49
2022-09-17T22:49:17.750Z,13.49
2022-09-17T22:51:46.658Z,13.03
2022-09-17T22:54:17.531Z,13.12
2022-09-17T22:56:47.623Z,13.50
2022-09-17T22:59:16.343Z,13.22
2022-09-17T23:01:44.277Z,13.02
2022-09-17T23:04:12.665Z,11.95
2022-09-17T23:06:42.487Z,12.20
2022-09-17T23:09:12.764Z,13.24
2022-09-17T23:11:41.194Z,13.53
2022-09-17T23:14:12.832Z,13.26
2022-09-17T23:16:43.107Z,12.86
2022-09-17T23:19:11.961Z,13.11
2022-09-17T23:21:40.157Z,13.26
2022-09-17T23:24:08.922Z,12.97
2022-09-17T23:26:36.849Z,13.03
2022-09-17T23:29:05.956Z,12.75
2022-09-17T23:31:36.297Z,13.09
2022-09-17T23:34:05.736Z,12.93
2022-09-17T23:36:36.152Z,13.20
2022-09-17T23:39:05.156Z,13.56
2022-09-17T23:41:35.062Z,13.07
2022-09-17T23:44:05.078Z,13.01
2022-09-17T23:46:37.878Z,13.41
2022-09-17T23:49:06.945Z,12.69
2022-09-17T23:51:37.387Z,13.74
2022-09-17T23:54:07.189Z,13.58
2022-09-17T23:56:36.447Z,12.57
2022-09-17T23:59:04.875Z,12.81
